By Pacific Northwest Chess Center | Saturday, May 02, 2020 11:00 Pacific Daylight Time | Completed
Seats : 200 | Registered : 135 | Available : 65

Event Roster

Section : Jackpot
Avg Rating : 2125 (FIDE) 1636 (USCF) | Section Limit : 200 | Registered : 135
Title Federation State Name Chess.com ID FIDE Rating USCF Rating Status Byes Reg Date
1 NM USA NY Li, Max Jiahua ronriigaaru 2078 * 2278 * Confirmed 05/02/2020 10:54:01
2 MI Barber, Eddie Shelton TheEndgameMagician 0 * 1942 * Confirmed 05/02/2020 10:44:43
3 IM IND INDIA Raja, Harshit Raja3401 2472 * 2487 * Confirmed 05/02/2020 10:43:57
4 USA CA Lin, Gabriel Gabriel_Lin 0 * 1638 * Confirmed 05/02/2020 10:38:42
5 IM USA CA Yoo, Christopher Woojin ChristopherYoo 2455 2540 Confirmed 05/02/2020 10:35:46
6 GM KAZ KAZ Kostenko, Petr petrkostenko 2429 * 0 * Confirmed 05/02/2020 10:31:51
7 IM USA CT Niemann, Hans HansCoolNiemann 2465 * 2549 * Confirmed 05/02/2020 10:22:32
8 GM USA VA Brown, Michael W michaelq2d5 2509 * 2611 * Confirmed 05/02/2020 10:05:51
9 NM USA WA Szabo, Marcell Paul RestartingChess 1895 * 2224 * Confirmed 05/02/2020 09:57:32
10 USA MA Feng, Eric ericf2008 1711 2045 Confirmed 05/02/2020 09:56:04
11 GM PAR PARAGUAY Bachman, Axel chito89 2599 2669 Confirmed 05/02/2020 08:03:42
12 GM TUR TURKEY Sanal, Vahap SantoBlue 2581 * 0 * Confirmed 05/02/2020 08:00:10
13 GM USA MA Jimenez, Fidel Corrales ficorrales 2532 2613 Confirmed 05/02/2020 07:35:37
14 GM GEO WA Margvelashvili, Giorgi Margvela90 2523 * 2586 * Confirmed 05/02/2020 07:31:21
15 IM USA MO Grabinsky, Aaron SketchyMoves 2461 2532 Confirmed 05/02/2020 07:30:36
16 GM RUS RUS Matlakov, Maxim Borsch7 2685 0 Confirmed 05/02/2020 03:55:27
17 IM RUS RUSSIA Drygalov, Andrey Angry_Twin 2495 * 0 * Confirmed 05/02/2020 03:17:22
18 IM RUS RUS Murzin, Volodar Volodar_Murzin 2465 0 Confirmed 05/02/2020 03:09:09
19 GM RUS RUS Kobalia, Mikhail Kobalia 2614 0 Confirmed 05/02/2020 02:23:22
20 GM RUS RUS Fedoseev, Vladimir Bigfish1995 2678 0 Confirmed 05/02/2020 02:19:00
21 WIM IND INDIA Deshmukh, Divya DivyaDeshmukh23 2305 * 0 * Confirmed 05/02/2020 02:10:44
22 WCM USA CA Vidyarthi, Omya harkerchess 1709 1934 Confirmed 05/02/2020 00:19:32
23 CM USA CA Vidyarthi, Vyom 2007checkmate 2090 * 2247 * Confirmed 05/02/2020 00:16:12
24 USA OR Vega, Isaac InversePenguinAlter 1735 1972 Confirmed 05/02/2020 00:01:22
25 GM USA MO Batista, Lazaro Bruzon Gmlazarobruzon 2644 * 2732 * Confirmed 05/01/2020 22:28:48
26 GM ARG ARGENTINA Pichot, Alan Platy3 2630 * 2667 * Confirmed 05/01/2020 21:31:20
27 GM IND INDIA Puranik, Abhimanyu abhidabhi 2584 2639 Confirmed 05/01/2020 21:12:53
28 IM USA NY Sarkar, Justin Joseph GMJustin 2380 2470 Confirmed 05/01/2020 19:44:53
29 CM USA NY Chen, Derek badboychen 1854 * 2059 * Confirmed 05/01/2020 19:16:29
30 USA TX Karthik, Dhruv dhruvkarthik 1467 * 1856 * Confirmed 05/01/2020 18:36:16
31 IM USA CA Hong, Andrew Zhang SpeedofLight0 2444 * 2533 * Confirmed 05/01/2020 17:30:55
32 FM USA NY Chasin, Nico Werner Rank30emz 2303 2396 Confirmed 05/01/2020 16:20:38
33 GM USA CA Zierk, Steven Zkid 2499 2597 Confirmed 05/01/2020 14:34:57
34 USA NJ Desai, Ved toddychicken911 0 * 1740 * Confirmed 05/01/2020 13:59:35
35 GM AZE Mamedov, Rauf muisback26 2654 2734 Confirmed 05/01/2020 13:50:47
36 USA MD Mariappan, Anish M Solaris7206 1397 1812 Confirmed 05/01/2020 13:04:20
37 CM USA MN Narayanan, Samrug Pigson7th 2100 * 2297 * Confirmed 05/01/2020 12:33:40
38 USA MI Rajanish, Adhvaith AD0406 1850 * 1999 * Confirmed 05/01/2020 12:20:56
39 USA MI Rajanish, Abhinav knightboy123 1619 * 1640 * Confirmed 05/01/2020 12:09:02
40 GM SRB NA SERBIA Ivanisevic, Ivan 1977Ivan 2604 * 2657 * Confirmed 05/01/2020 12:02:51
41 IM CRO Doric, Darko Toro1234 2484 0 Confirmed 05/01/2020 11:33:35
42 USA NY Yang, Cayden woodpusher52 0 2174 Confirmed 05/01/2020 10:57:18
43 USA CA Mei, Austin R TitanChess666 1962 * 2149 * Confirmed 05/01/2020 10:35:11
44 USA WA Ramkumar, Aditya adi0708 1343 * 1452 * Confirmed 05/01/2020 10:26:32
45 IM UKR UKRAINE Skliarov, Viktor viktorskliarov 2376 * 0 * Confirmed 05/01/2020 10:17:21
46 GM LAT LATVIA Kovalenko, Igor igorkovalenko 2645 * 2726 * Confirmed 05/01/2020 10:12:14
47 CM USA VA Sriniaiyer, Sudarshan chess_peak 1995 2124 Confirmed 05/01/2020 09:57:54
48 CAN BC Su, Ethan vandragon 1759 1923 Confirmed 05/01/2020 09:08:28
49 USA NY Li, Thomas th0m4sL 1822 * 2098 * Confirmed 05/01/2020 08:08:10
50 LM USA PA Park, Evan KrazyPawns 2146 * 2305 * Confirmed 05/01/2020 07:58:55
51 LM USA NJ Tian, Eddy PoloniumChess 2204 * 2326 * Confirmed 05/01/2020 07:15:37
52 GM RUS UNKNOWN Sarana, Alexey mishanick 2654 2716 Confirmed 05/01/2020 00:34:07
53 CM USA CA Ai, Evan CFalcons8 1793 * 2058 * Confirmed 05/01/2020 00:13:20
54 USA TX Dai, George Jingchang GeorgeDai777 1709 1974 Confirmed 04/30/2020 21:08:40
55 USA TX Deviprasath, Sharvesh KarateBaby 1578 * 1977 * Confirmed 04/30/2020 20:38:03
56 USA PA Tang, Vincent phoenix_2008 1332 * 1861 * Confirmed 04/30/2020 19:23:53
57 USA CA Sairam, Pranav chesspilot01 1810 * 2087 * Confirmed 04/30/2020 17:40:07
58 USA NY Ho, Carter oldtimeyrootbeer 1415 1793 Confirmed 04/30/2020 17:27:17
59 USA NY Ho, Cooper hexacrash 1663 2010 Confirmed 04/30/2020 17:18:34
60 LM USA NJ Zhang, Alan AlanZhang 2077 * 2211 * Confirmed 04/30/2020 16:39:02
61 NJ Li, Eric asdfghjkl0010 0 * 1700 * Confirmed 04/30/2020 15:41:05
62 GM KAZ Kotsur, Pavel Barys1974 2517 0 Confirmed 04/30/2020 15:14:28
63 GM ISR Gelfand, Boris Remontada2017 2676 * 2622 * Confirmed 04/30/2020 12:43:40
64 GM UKR FL Bortnyk, Olexandr Oleksandr_Bortnyk 2598 * 2665 * Confirmed 04/30/2020 10:36:53
65 WIM VIE VA Nguyen, Tien wild_cat99 1971 2103 Confirmed 04/30/2020 09:51:01
66 GM NOR Tari, Aryan aryantari 2634 * 2469 * Confirmed 04/30/2020 08:17:34
67 WCM USA CA Yan, Ruiyang jij2018 2093 * 2242 * Confirmed 04/30/2020 00:56:47
68 GM RUS RUS Gabrielian, Artur Gabrielian_Artur 2463 0 Confirmed 04/29/2020 11:50:30
69 GM SRB SERBIA Miljkovic, Miroslav D MiroMiljkovic 2482 0 Confirmed 04/29/2020 11:28:14
70 USA WA Liu, Erik Erik_liu 1615 1691 Confirmed 04/29/2020 10:04:32
71 GM PER LIM PERU Alcantara, Mr. Jose Martinez Jospem 2620 0 Confirmed 04/29/2020 08:39:28
72 IM PER PERU Leiva, Giuseppe Unico10 2391 0 Confirmed 04/29/2020 05:59:37
73 GM RUS RUS Chigaev, Maksim Fandorine 2588 0 Confirmed 04/29/2020 04:36:29
74 GM SRB SRB Indjic, Aleksandar Beca95 2618 * 2640 * Confirmed 04/29/2020 03:46:36
75 GM ISR ISRAEL Huzman, Alex Alexhuzman 2562 * 2589 * Confirmed 04/29/2020 02:46:06
76 IM IND INDIA Saravana, Krishnan P mbachez 2312 * 0 * Confirmed 04/29/2020 01:24:51
77 GM UKR UKRAINE Bernadskiy, Vitaliy VitaliyBernadskiy 2629 0 Confirmed 04/29/2020 01:22:57
78 IM VIE TX Le, Tuan Minh wonderfultime 2501 2607 Confirmed 04/29/2020 00:58:50
79 GM SRB SERBIA Popovic, Dusan dusanacns 2500 0 Confirmed 04/29/2020 00:55:37
80 GM IND INDIA Arjun, Erigaisi Ghandeevam2003 2559 0 Confirmed 04/29/2020 00:44:34
81 GM IND INDIA Harsha, Bharathakoti harsha_bharathakoti 2509 * 0 * Confirmed 04/28/2020 23:33:07
82 GM IND INDIA Sl, Narayanan Indianlad 2618 0 Confirmed 04/28/2020 23:32:04
83 GM KAZ KAZ Jumabayev, Rinat Jumbo 2654 * 2657 * Confirmed 04/28/2020 23:28:29
84 GM CUB CUBA Pedraza, Aramis Alvarez pollo2016 2440 * 0 * Confirmed 04/28/2020 23:11:30
85 GM UKR UKRAINE Eljanov, Pavel eljanov 2672 * 0 * Confirmed 04/28/2020 17:34:06
86 LM USA NY Jr., Davis Zong spriteball 2129 2270 Confirmed 04/28/2020 16:32:59
87 USA MA Tu, Lawrence Night0Sky 1554 1896 Confirmed 04/28/2020 14:59:53
88 GM CRO Jovanovic, Zoran Mrkvoz 2520 0 Confirmed 04/28/2020 14:05:13
89 GM CUB CUBA Garrido, Camilo Ernesto Gomez Relaxx87 2479 * 0 * Confirmed 04/28/2020 12:09:37
90 GM ITA MO Rambaldi, Francesco Kaphrep 2569 2625 Confirmed 04/28/2020 09:36:06
91 USA NJ Modi, Ethan GutsyEdge 1786 * 2068 * Confirmed 04/28/2020 04:54:05
92 CM USA CA Kondakov, Adrian ChickenManMan4U 1986 2137 Confirmed 04/27/2020 18:19:31
93 IM PER PERU Lujan, Renato Alfredo Terry renatoterrylujan 2504 * 0 * Confirmed 04/27/2020 13:08:09
94 CM USA IL Xu, Arthur chesswhiz57 2105 * 2223 * Confirmed 04/27/2020 12:50:14
95 WGM UKR UKRAINE Doluhanova, Evgeniya jenia84 2229 * 0 * Confirmed 04/27/2020 09:19:40
96 GM CRO Bosiocic, Marin Bosiocic 2606 2629 Confirmed 04/27/2020 08:55:04
97 GM ISR Postny, Evgeny Evgeny81 2600 2729 Confirmed 04/27/2020 08:14:50
98 GM USA MO Perez, Yuniesky Quesada tenismaster 2598 * 2673 * Confirmed 04/27/2020 07:42:42
99 IM GER GERMANY Rosner, Jonas BasilSmash 2433 * 0 * Confirmed 04/27/2020 02:34:53
100 IM RUS RUS Khanin, Semen Semen_Khanin 2482 * 0 * Confirmed 04/27/2020 00:00:15
101 CM USA MI Zheng, Michael Zihan concordiaberserk 2050 2178 Confirmed 04/26/2020 18:18:21
102 IM USA TX Wang, Justin JustinWang1234 2447 * 2540 * Confirmed 04/26/2020 15:45:37
103 GM RUS RUS Demchenko, Anton Anton_Demchenko 2641 0 Confirmed 04/26/2020 15:03:55
104 GM AZE NY Babaev, Rashad rabachess 2525 * 2467 * Confirmed 04/26/2020 14:35:16
105 GM RUS UNKNOWN Karjakin, Sergey SergeyKarjakin 2752 * 2842 * Confirmed 04/26/2020 14:14:34
106 FM USA NY Tsay, Vincent babybanana 2310 * 2407 * Confirmed 04/26/2020 09:04:42
107 NJ Tippa, Aarush atippa 0 * 1765 * Confirmed 04/26/2020 08:35:42
108 IM CHN CHINA Jia, Haoxiang JiaHaoxiang 2331 * 0 * Confirmed 04/26/2020 06:48:52
109 GM UKR Kuzubov, Yuriy KuzubovYuriy 2643 2736 Confirmed 04/26/2020 04:31:52
110 GM AZE AZE Guseinov, Gadir GGuseinov 2665 0 Confirmed 04/26/2020 01:41:09
111 IM CRO Livaic, Leon Bulldog167 2507 0 Confirmed 04/26/2020 00:44:03
112 WGM RUS UNKNOWN Shuvalova, Polina Flawless_Fighter 2454 * 0 * Confirmed 04/26/2020 00:38:32
113 USA WA Chen, Aidan POtatershshh 1719 * 1842 * Confirmed 04/25/2020 17:42:19
114 GM USA TX Xiong, Jeffery jefferyx 2709 2786 Confirmed 04/25/2020 15:36:08
115 IM IND INDIA R, Raja Rithvik starworld123 2408 * 0 * Confirmed 04/25/2020 14:45:14
116 WIM USA CA Wu, Rochelle tanki97 2028 * 2266 * Confirmed 04/25/2020 12:57:39
117 TX Qi, Hengtai hengtai 0 * 1553 * Confirmed 04/25/2020 12:56:08
118 GM IND INDIA Sadhwani, Raunak RaunakSadhwani2005 2545 0 Confirmed 04/25/2020 12:39:09
119 GM USA MA Sevian, Samuel Konavets 2660 2733 Confirmed 04/25/2020 12:14:52
120 GM RUS TX Belous, Vladimir Openyagami 2524 2635 Confirmed 04/25/2020 12:04:35
121 GM USA CA Khachiyan, Melikset GMMelik 2481 2544 Confirmed 04/25/2020 12:04:18
122 GM POL UT Stopa, Jacek Leeroy275 2427 * 2540 * Confirmed 04/25/2020 12:03:51
123 GM POL TX Dragun, Kamil Drags95 2561 2605 Confirmed 04/25/2020 12:03:39
124 USA WA Smith, Colin KingGambits 0 * 1595 * Confirmed 04/25/2020 12:03:25
125 USA WA Harish, Neeraj jinxy2009 1472 1734 Confirmed 04/25/2020 12:03:01
126 USA WA Srinivasan, Harish ddlj81 1776 1787 Confirmed 04/25/2020 12:02:48
127 USA WA Vijayakumar, Advaith 2Ke21-0 1846 * 2026 * Confirmed 04/25/2020 12:02:37
128 WA Shi, Ted tedshi 0 1575 Confirmed 04/25/2020 12:02:27
129 IM IND INDIA Mittal, Aditya vinniethepooh 2438 * 0 * Confirmed 04/25/2020 12:01:09
130 GM USA MO Perez, Leinier Dominguez Sebastian 2758 * 2829 * Confirmed 04/25/2020 12:00:37
131 CA Shi, Roger V Roger436 0 * 1572 * Confirmed 04/25/2020 11:59:43
132 GM ISR ISRAEL Smirin, Ilya tapuah 2612 * 2748 * Confirmed 04/25/2020 11:55:57
133 GM BIH BIH Predojevic, Borki Kiborg1987 2601 2696 Confirmed 04/25/2020 11:47:19
134 FM USA WA He, Anthony Bi 0gZPanda 2337 2439 Confirmed 04/25/2020 11:41:14
135 GM AZE Safarli, Eltaj Eltaj_Safarli 2598 * 2507 * Confirmed 04/25/2020 11:36:34